createdAt,value
2022-10-06T00:00:33.032Z,100746.00
2022-10-06T00:02:59.897Z,100753.00
2022-10-06T00:05:26.636Z,100752.00
2022-10-06T00:07:53.209Z,100750.00
2022-10-06T00:10:19.670Z,100753.00
2022-10-06T00:12:50.188Z,100761.00
2022-10-06T00:15:19.570Z,100752.00
2022-10-06T00:17:46.057Z,100762.00
2022-10-06T00:20:12.813Z,100757.00
2022-10-06T00:22:41.530Z,100760.00
2022-10-06T00:25:10.106Z,100767.00
2022-10-06T00:27:41.746Z,100773.00
2022-10-06T00:30:14.435Z,100774.00
2022-10-06T00:32:41.037Z,100772.00
2022-10-06T00:35:09.057Z,100783.00
2022-10-06T00:37:37.771Z,100789.00
2022-10-06T00:40:09.675Z,100795.00
2022-10-06T00:42:50.732Z,100786.00
2022-10-06T00:45:19.060Z,100787.00
2022-10-06T00:47:46.266Z,100782.00
2022-10-06T00:50:13.325Z,100796.00
2022-10-06T00:52:40.219Z,100793.00
2022-10-06T00:55:10.767Z,100795.00
2022-10-06T00:57:38.553Z,100794.00
2022-10-06T01:00:06.861Z,100795.00
2022-10-06T01:02:43.787Z,100796.00
2022-10-06T01:05:15.326Z,100789.00
2022-10-06T01:07:41.913Z,100805.00
2022-10-06T01:10:09.190Z,100802.00
2022-10-06T01:12:35.916Z,100805.00
2022-10-06T01:15:02.539Z,100800.00
2022-10-06T01:17:40.088Z,100799.00
2022-10-06T01:20:12.103Z,100794.00
2022-10-06T01:22:50.424Z,100799.00
2022-10-06T01:25:18.457Z,100803.00
2022-10-06T01:27:53.518Z,100802.00
2022-10-06T01:30:32.191Z,100807.00
2022-10-06T01:32:58.888Z,100810.00
2022-10-06T01:35:25.818Z,100814.00
2022-10-06T01:37:52.566Z,100818.00
2022-10-06T01:40:19.669Z,100820.00
2022-10-06T01:42:46.270Z,100821.00
2022-10-06T01:45:12.788Z,100824.00
2022-10-06T01:47:39.322Z,100818.00
2022-10-06T01:50:07.141Z,100811.00
2022-10-06T01:52:35.536Z,100820.00
2022-10-06T01:55:02.085Z,100824.00
2022-10-06T01:57:30.093Z,100825.00
2022-10-06T01:59:56.746Z,100816.00
2022-10-06T02:02:24.071Z,100824.00
2022-10-06T02:04:50.616Z,100818.00
2022-10-06T02:07:17.957Z,100814.00
2022-10-06T02:09:46.141Z,100820.00
2022-10-06T02:12:13.085Z,100818.00
2022-10-06T02:14:40.942Z,100817.00
2022-10-06T02:17:09.932Z,100823.00
2022-10-06T02:19:36.612Z,100810.00
2022-10-06T02:22:03.678Z,100826.00
2022-10-06T02:24:30.351Z,100825.00
2022-10-06T02:26:56.862Z,100828.00
2022-10-06T02:29:23.822Z,100830.00
2022-10-06T02:31:50.505Z,100834.00
2022-10-06T02:34:17.265Z,100831.00
2022-10-06T02:36:43.783Z,100845.00
2022-10-06T02:39:10.926Z,100847.00
2022-10-06T02:41:37.433Z,100853.00
2022-10-06T02:44:03.894Z,100847.00
2022-10-06T02:46:31.396Z,100847.00
2022-10-06T02:48:58.870Z,100850.00
2022-10-06T02:51:25.358Z,100851.00
2022-10-06T02:53:52.788Z,100853.00
2022-10-06T02:56:22.113Z,100864.00
2022-10-06T02:58:50.030Z,100860.00
2022-10-06T03:01:25.600Z,100865.00
2022-10-06T03:03:54.626Z,100872.00
2022-10-06T03:06:23.479Z,100878.00
2022-10-06T03:08:59.258Z,100884.00
2022-10-06T03:11:33.549Z,100878.00
2022-10-06T03:14:00.129Z,100879.00
2022-10-06T03:16:40.775Z,100885.00
2022-10-06T03:19:12.968Z,100891.00
2022-10-06T03:21:43.758Z,100892.00
2022-10-06T03:24:11.787Z,100893.00
2022-10-06T03:26:44.127Z,100894.00
2022-10-06T03:29:12.160Z,100901.00
2022-10-06T03:31:43.301Z,100907.00
2022-10-06T03:34:10.596Z,100900.00
2022-10-06T03:36:37.370Z,100903.00
2022-10-06T03:39:05.483Z,100899.00
2022-10-06T03:41:35.773Z,100918.00
2022-10-06T03:44:03.270Z,100916.00
2022-10-06T03:46:33.322Z,100942.00
2022-10-06T03:49:01.638Z,100934.00
2022-10-06T03:51:37.968Z,100953.00
2022-10-06T03:54:07.752Z,100963.00
2022-10-06T03:56:37.955Z,100974.00
2022-10-06T03:59:07.482Z,100974.00
2022-10-06T04:01:42.594Z,100998.00
2022-10-06T04:04:11.501Z,101009.00
2022-10-06T04:06:42.214Z,101005.00
2022-10-06T04:09:15.731Z,101003.00
2022-10-06T04:11:43.920Z,101008.00
2022-10-06T04:14:13.105Z,101009.00
2022-10-06T04:16:41.844Z,101012.00
2022-10-06T04:19:11.595Z,101021.00
2022-10-06T04:21:43.363Z,101023.00
2022-10-06T04:24:12.289Z,101031.00
2022-10-06T04:26:46.469Z,101034.00
2022-10-06T04:29:13.900Z,101050.00
2022-10-06T04:31:42.417Z,101050.00
2022-10-06T04:34:15.907Z,101044.00
2022-10-06T04:36:44.032Z,101046.00
2022-10-06T04:39:14.118Z,101057.00
2022-10-06T04:41:47.114Z,101054.00
2022-10-06T04:44:18.212Z,101065.00
2022-10-06T04:46:45.545Z,101069.00
2022-10-06T04:49:19.063Z,101075.00
2022-10-06T04:51:50.572Z,101064.00
2022-10-06T04:54:18.894Z,101065.00
2022-10-06T04:56:47.183Z,101058.00
2022-10-06T04:59:15.765Z,101062.00
2022-10-06T05:01:43.975Z,101072.00
2022-10-06T05:04:12.537Z,101087.00
2022-10-06T05:06:41.427Z,101075.00
2022-10-06T05:09:12.587Z,101087.00
2022-10-06T05:11:44.465Z,101092.00
2022-10-06T05:14:13.483Z,101105.00
2022-10-06T05:16:43.708Z,101111.00
2022-10-06T05:19:11.626Z,101119.00
2022-10-06T05:21:39.178Z,101138.00
2022-10-06T05:24:07.920Z,101142.00
2022-10-06T05:26:36.730Z,101150.00
2022-10-06T05:29:05.892Z,101157.00
2022-10-06T05:31:35.258Z,101152.00
2022-10-06T05:34:04.806Z,101154.00
2022-10-06T05:36:33.753Z,101166.00
2022-10-06T05:39:01.645Z,101172.00
2022-10-06T05:41:37.355Z,101176.00
2022-10-06T05:44:08.761Z,101186.00
2022-10-06T05:46:37.607Z,101178.00
2022-10-06T05:49:10.334Z,101197.00
2022-10-06T05:51:40.489Z,101205.00
2022-10-06T05:54:15.937Z,101216.00
2022-10-06T05:56:42.883Z,101222.00
2022-10-06T05:59:14.894Z,101217.00
2022-10-06T06:01:42.909Z,101228.00
2022-10-06T06:04:16.953Z,101235.00
2022-10-06T06:06:48.772Z,101250.00
2022-10-06T06:09:23.541Z,101254.00
2022-10-06T06:11:53.209Z,101270.00
2022-10-06T06:15:04.207Z,101281.00
2022-10-06T06:17:41.447Z,101291.00
2022-10-06T06:20:08.501Z,101299.00
2022-10-06T06:22:35.846Z,101292.00
2022-10-06T06:25:04.061Z,101300.00
2022-10-06T06:27:30.552Z,101311.00
2022-10-06T06:29:57.548Z,101322.00
2022-10-06T06:32:24.967Z,101323.00
2022-10-06T06:34:52.755Z,101344.00
2022-10-06T06:37:19.572Z,101346.00
2022-10-06T06:39:47.061Z,101349.00
2022-10-06T06:42:13.666Z,101348.00
2022-10-06T06:44:49.050Z,101362.00
2022-10-06T06:47:26.685Z,101372.00
2022-10-06T06:49:53.792Z,101372.00
2022-10-06T06:52:20.666Z,101382.00
2022-10-06T06:54:49.924Z,101392.00
2022-10-06T06:57:18.198Z,101398.00
2022-10-06T06:59:45.918Z,101397.00
2022-10-06T07:02:15.189Z,101403.00
2022-10-06T07:04:44.603Z,101415.00
2022-10-06T07:07:14.466Z,101413.00
2022-10-06T07:09:42.037Z,101435.00
2022-10-06T07:12:11.517Z,101435.00
2022-10-06T07:15:01.518Z,101434.00
2022-10-06T07:17:48.666Z,101440.00
2022-10-06T07:20:34.288Z,101451.00
2022-10-06T07:23:19.374Z,101447.00
2022-10-06T07:25:46.025Z,101452.00
2022-10-06T07:28:15.316Z,101466.00
2022-10-06T07:30:41.915Z,101479.00
2022-10-06T07:33:11.681Z,101474.00
2022-10-06T07:35:39.352Z,101492.00
2022-10-06T07:38:07.835Z,101489.00
2022-10-06T07:40:46.363Z,101494.00
2022-10-06T07:43:17.979Z,101496.00
2022-10-06T07:45:46.985Z,101507.00
2022-10-06T07:48:43.138Z,101494.00
2022-10-06T07:51:18.428Z,101498.00
2022-10-06T07:53:46.722Z,101507.00
2022-10-06T07:56:22.998Z,101504.00
2022-10-06T07:58:53.696Z,101506.00
2022-10-06T08:01:20.609Z,101505.00
2022-10-06T08:03:50.978Z,101523.00
2022-10-06T08:06:18.904Z,101519.00
2022-10-06T08:08:52.432Z,101530.00
2022-10-06T08:11:20.116Z,101533.00
2022-10-06T08:13:50.386Z,101541.00
2022-10-06T08:16:19.715Z,101546.00
2022-10-06T08:18:53.908Z,101542.00
2022-10-06T08:21:24.088Z,101538.00
2022-10-06T08:23:51.798Z,101551.00
2022-10-06T08:26:20.124Z,101558.00
2022-10-06T08:28:49.806Z,101568.00
2022-10-06T08:31:17.878Z,101564.00
2022-10-06T08:33:45.528Z,101572.00
2022-10-06T08:36:14.313Z,101580.00
2022-10-06T08:38:41.105Z,101584.00
2022-10-06T08:41:22.594Z,101594.00
2022-10-06T08:43:53.977Z,101588.00
2022-10-06T08:46:24.616Z,101585.00
2022-10-06T08:48:51.488Z,101595.00
2022-10-06T08:51:44.330Z,101601.00
2022-10-06T08:54:21.255Z,101595.00
2022-10-06T08:56:56.257Z,101602.00
2022-10-06T08:59:22.809Z,101615.00
2022-10-06T09:01:51.402Z,101613.00
2022-10-06T09:04:32.069Z,101622.00
2022-10-06T09:07:16.833Z,101619.00
2022-10-06T09:09:54.071Z,101620.00
2022-10-06T09:12:37.759Z,101628.00
2022-10-06T09:15:30.304Z,101627.00
2022-10-06T09:18:01.948Z,101636.00
2022-10-06T09:20:32.981Z,101641.00
2022-10-06T09:23:00.543Z,101648.00
2022-10-06T09:25:28.737Z,101648.00
2022-10-06T09:27:57.336Z,101652.00
2022-10-06T09:30:24.340Z,101664.00
2022-10-06T09:33:16.870Z,101656.00
2022-10-06T09:36:06.263Z,101664.00
2022-10-06T09:38:55.977Z,101652.00
2022-10-06T09:41:37.635Z,101662.00
2022-10-06T09:44:07.112Z,101668.00
2022-10-06T09:46:41.578Z,101666.00
2022-10-06T09:49:15.546Z,101676.00
2022-10-06T09:51:43.854Z,101672.00
2022-10-06T09:54:14.819Z,101680.00
2022-10-06T09:56:47.113Z,101677.00
2022-10-06T09:59:21.969Z,101682.00
2022-10-06T10:01:53.044Z,101691.00
2022-10-06T10:04:40.748Z,101690.00
2022-10-06T10:07:25.273Z,101688.00
2022-10-06T10:10:17.131Z,101695.00
2022-10-06T10:12:54.572Z,101694.00
2022-10-06T10:15:21.238Z,101697.00
2022-10-06T10:17:49.950Z,101688.00
2022-10-06T10:20:28.195Z,101692.00
2022-10-06T10:22:59.855Z,101701.00
2022-10-06T10:25:33.156Z,101714.00
2022-10-06T10:28:18.039Z,101720.00
2022-10-06T10:31:09.849Z,101709.00
2022-10-06T10:33:54.185Z,101718.00
2022-10-06T10:36:39.576Z,101711.00
2022-10-06T10:39:12.638Z,101714.00
2022-10-06T10:41:49.370Z,101710.00
2022-10-06T10:44:35.095Z,101722.00
2022-10-06T10:47:25.945Z,101715.00
2022-10-06T10:50:00.337Z,101717.00
2022-10-06T10:52:30.244Z,101718.00
2022-10-06T10:55:03.494Z,101724.00
2022-10-06T10:57:35.723Z,101721.00
2022-10-06T11:00:29.019Z,101731.00
2022-10-06T11:02:58.286Z,101720.00
2022-10-06T11:05:29.048Z,101729.00
2022-10-06T11:08:13.412Z,101730.00
2022-10-06T11:11:00.897Z,101728.00
2022-10-06T11:13:45.951Z,101737.00
2022-10-06T11:16:17.526Z,101742.00
2022-10-06T11:19:06.355Z,101737.00
2022-10-06T11:21:42.996Z,101738.00
2022-10-06T11:24:15.638Z,101739.00
2022-10-06T11:27:25.864Z,101750.00
2022-10-06T11:30:14.860Z,101751.00
2022-10-06T11:33:01.492Z,101751.00
2022-10-06T11:35:36.871Z,101750.00
2022-10-06T11:38:06.321Z,101749.00
2022-10-06T11:41:00.608Z,101766.00
2022-10-06T11:43:58.005Z,101763.00
2022-10-06T11:46:44.075Z,101761.00
2022-10-06T11:49:30.042Z,101761.00
2022-10-06T11:52:00.185Z,101764.00
2022-10-06T11:54:39.643Z,101761.00
2022-10-06T11:57:29.663Z,101765.00
2022-10-06T12:00:03.410Z,101765.00
2022-10-06T12:02:33.503Z,101771.00
2022-10-06T12:05:28.659Z,101768.00
2022-10-06T12:07:55.637Z,101756.00
2022-10-06T12:10:28.325Z,101770.00
2022-10-06T12:13:39.084Z,101775.00
2022-10-06T12:18:56.597Z,101777.00
2022-10-06T12:21:45.567Z,101768.00
2022-10-06T12:24:28.703Z,101773.00
2022-10-06T12:27:53.950Z,101777.00
2022-10-06T12:30:47.344Z,101768.00
2022-10-06T12:33:34.681Z,101776.00
2022-10-06T12:39:01.682Z,101784.00
2022-10-06T12:41:56.132Z,101781.00
2022-10-06T12:44:23.387Z,101790.00
2022-10-06T12:46:50.277Z,101791.00
2022-10-06T12:49:31.861Z,101787.00
2022-10-06T12:52:00.603Z,101792.00
2022-10-06T12:54:38.959Z,101796.00
2022-10-06T12:57:18.324Z,101784.00
2022-10-06T12:59:45.063Z,101789.00
2022-10-06T13:02:21.534Z,101796.00
2022-10-06T13:05:15.617Z,101790.00
2022-10-06T13:08:03.375Z,101794.00
2022-10-06T13:10:33.122Z,101798.00
2022-10-06T13:13:00.258Z,101796.00
2022-10-06T13:18:07.928Z,101805.00
2022-10-06T13:20:52.065Z,101804.00
2022-10-06T13:23:28.468Z,101803.00
2022-10-06T13:26:08.568Z,101801.00
2022-10-06T13:28:44.192Z,101797.00
2022-10-06T13:31:35.009Z,101806.00
2022-10-06T13:34:24.227Z,101804.00
2022-10-06T13:36:51.668Z,101798.00
2022-10-06T13:39:20.371Z,101797.00
2022-10-06T13:42:00.382Z,101813.00
2022-10-06T13:44:36.201Z,101813.00
2022-10-06T13:47:05.844Z,101818.00
2022-10-06T13:49:50.462Z,101819.00
2022-10-06T13:52:25.584Z,101820.00
2022-10-06T13:54:54.717Z,101820.00
2022-10-06T13:57:47.217Z,101821.00
2022-10-06T14:00:49.451Z,101823.00
2022-10-06T14:06:22.005Z,101828.00
2022-10-06T14:08:51.877Z,101821.00
2022-10-06T14:11:24.274Z,101821.00
2022-10-06T14:14:00.016Z,101825.00
2022-10-06T14:16:27.966Z,101819.00
2022-10-06T14:19:03.342Z,101812.00
2022-10-06T14:21:37.567Z,101823.00
2022-10-06T14:24:28.359Z,101827.00
2022-10-06T14:27:00.946Z,101830.00
2022-10-06T14:29:27.487Z,101838.00
2022-10-06T14:31:53.993Z,101834.00
2022-10-06T14:34:21.945Z,101842.00
2022-10-06T14:36:55.217Z,101838.00
2022-10-06T14:39:21.925Z,101841.00
2022-10-06T14:41:48.582Z,101845.00
2022-10-06T14:44:15.999Z,101847.00
2022-10-06T14:46:47.023Z,101846.00
2022-10-06T14:49:13.930Z,101848.00
2022-10-06T14:51:41.897Z,101846.00
2022-10-06T14:54:10.953Z,101849.00
2022-10-06T14:56:38.402Z,101844.00
2022-10-06T14:59:10.379Z,101852.00
2022-10-06T15:01:38.435Z,101847.00
2022-10-06T15:04:07.960Z,101846.00
2022-10-06T15:06:53.059Z,101852.00
2022-10-06T15:09:19.633Z,101851.00
2022-10-06T15:11:46.234Z,101854.00
2022-10-06T15:14:12.906Z,101848.00
2022-10-06T15:16:42.096Z,101853.00
2022-10-06T15:19:09.216Z,101850.00
2022-10-06T15:21:36.472Z,101854.00
2022-10-06T15:24:04.267Z,101856.00
2022-10-06T15:26:50.113Z,101854.00
2022-10-06T15:29:17.804Z,101855.00
2022-10-06T15:31:50.995Z,101848.00
2022-10-06T15:34:19.342Z,101853.00
2022-10-06T15:36:45.906Z,101845.00
2022-10-06T15:39:14.204Z,101850.00
2022-10-06T15:41:42.745Z,101846.00
2022-10-06T15:44:10.139Z,101849.00
2022-10-06T15:46:42.429Z,101856.00
2022-10-06T15:49:17.199Z,101847.00
2022-10-06T15:51:49.638Z,101862.00
2022-10-06T15:54:25.396Z,101857.00
2022-10-06T15:56:56.955Z,101859.00
2022-10-06T15:59:24.608Z,101856.00
2022-10-06T16:01:57.195Z,101856.00
2022-10-06T16:04:44.412Z,101863.00
2022-10-06T16:07:13.011Z,101857.00
2022-10-06T16:09:43.250Z,101861.00
2022-10-06T16:12:11.794Z,101860.00
2022-10-06T16:14:38.378Z,101875.00
2022-10-06T16:17:06.210Z,101870.00
2022-10-06T16:19:33.778Z,101871.00
2022-10-06T16:22:00.952Z,101879.00
2022-10-06T16:24:27.754Z,101881.00
2022-10-06T16:26:57.167Z,101876.00
2022-10-06T16:29:24.001Z,101880.00
2022-10-06T16:31:50.918Z,101885.00
2022-10-06T16:34:18.294Z,101890.00
2022-10-06T16:36:44.961Z,101882.00
2022-10-06T16:39:16.585Z,101880.00
2022-10-06T16:41:43.458Z,101892.00
2022-10-06T16:44:10.771Z,101891.00
2022-10-06T16:46:37.454Z,101892.00
2022-10-06T16:49:04.851Z,101895.00
2022-10-06T16:51:33.489Z,101892.00
2022-10-06T16:54:02.570Z,101898.00
2022-10-06T16:56:41.162Z,101901.00
2022-10-06T16:59:26.475Z,101906.00
2022-10-06T17:01:53.050Z,101909.00
2022-10-06T17:04:21.784Z,101913.00
2022-10-06T17:06:53.580Z,101905.00
2022-10-06T17:09:22.565Z,101908.00
2022-10-06T17:11:50.027Z,101918.00
2022-10-06T17:14:30.926Z,101924.00
2022-10-06T17:16:58.216Z,101921.00
2022-10-06T17:19:27.969Z,101930.00
2022-10-06T17:21:59.006Z,101927.00
2022-10-06T17:24:28.279Z,101923.00
2022-10-06T17:26:55.839Z,101927.00
2022-10-06T17:29:23.109Z,101924.00
2022-10-06T17:31:53.229Z,101927.00
2022-10-06T17:34:23.608Z,101928.00
2022-10-06T17:36:51.758Z,101929.00
2022-10-06T17:39:22.743Z,101927.00
2022-10-06T17:41:51.761Z,101931.00
2022-10-06T17:44:23.782Z,101929.00
2022-10-06T17:46:55.663Z,101927.00
2022-10-06T17:49:23.808Z,101930.00
2022-10-06T17:51:51.400Z,101933.00
2022-10-06T17:54:20.581Z,101927.00
2022-10-06T17:56:49.367Z,101927.00
2022-10-06T17:59:18.643Z,101933.00
2022-10-06T18:01:45.394Z,101933.00
2022-10-06T18:04:15.512Z,101940.00
2022-10-06T18:06:43.178Z,101941.00
2022-10-06T18:09:09.641Z,101944.00
2022-10-06T18:11:38.158Z,101934.00
2022-10-06T18:14:08.495Z,101938.00
2022-10-06T18:16:37.440Z,101934.00
2022-10-06T18:19:09.371Z,101939.00
2022-10-06T18:21:39.794Z,101940.00
2022-10-06T18:24:12.366Z,101944.00
2022-10-06T18:26:41.720Z,101943.00
2022-10-06T18:29:11.385Z,101928.00
2022-10-06T18:31:38.900Z,101941.00
2022-10-06T18:36:56.718Z,101937.00
2022-10-06T18:39:23.180Z,101946.00
2022-10-06T18:41:51.075Z,101937.00
2022-10-06T18:44:37.823Z,101943.00
2022-10-06T18:47:23.030Z,101947.00
2022-10-06T18:49:49.511Z,101945.00
2022-10-06T18:52:16.071Z,101947.00
2022-10-06T18:54:44.454Z,101946.00
2022-10-06T18:57:10.997Z,101946.00
2022-10-06T18:59:37.720Z,101949.00
2022-10-06T19:02:04.846Z,101943.00
2022-10-06T19:04:35.604Z,101944.00
2022-10-06T19:07:02.483Z,101946.00
2022-10-06T19:09:28.953Z,101948.00
2022-10-06T19:11:57.661Z,101948.00
2022-10-06T19:14:30.997Z,101947.00
2022-10-06T19:16:59.893Z,101952.00
2022-10-06T19:19:27.583Z,101954.00
2022-10-06T19:21:59.613Z,101950.00
2022-10-06T19:24:37.457Z,101951.00
2022-10-06T19:27:11.248Z,101951.00
2022-10-06T19:29:45.986Z,101957.00
2022-10-06T19:32:18.836Z,101961.00
2022-10-06T19:34:46.882Z,101951.00
2022-10-06T19:37:13.775Z,101956.00
2022-10-06T19:39:42.953Z,101962.00
2022-10-06T19:42:31.684Z,101961.00
2022-10-06T19:44:58.177Z,101956.00
2022-10-06T19:47:24.909Z,101964.00
2022-10-06T19:49:57.901Z,101961.00
2022-10-06T19:52:25.720Z,101968.00
2022-10-06T19:54:52.198Z,101966.00
2022-10-06T19:57:18.706Z,101958.00
2022-10-06T19:59:45.184Z,101963.00
2022-10-06T20:02:11.659Z,101969.00
2022-10-06T20:04:39.510Z,101972.00
2022-10-06T20:07:06.080Z,101976.00
2022-10-06T20:09:32.559Z,101978.00
2022-10-06T20:12:00.186Z,101981.00
2022-10-06T20:14:26.805Z,101981.00
2022-10-06T20:16:54.767Z,101989.00
2022-10-06T20:19:21.567Z,102002.00
2022-10-06T20:21:48.567Z,101990.00
2022-10-06T20:24:22.374Z,101993.00
2022-10-06T20:26:50.377Z,101993.00
2022-10-06T20:29:22.812Z,101994.00
2022-10-06T20:31:51.836Z,101987.00
2022-10-06T20:34:21.320Z,102000.00
2022-10-06T20:36:50.678Z,101992.00
2022-10-06T20:39:40.635Z,101991.00
2022-10-06T20:42:12.004Z,102001.00
2022-10-06T20:44:41.986Z,101997.00
2022-10-06T20:47:08.979Z,102004.00
2022-10-06T20:49:35.820Z,101990.00
2022-10-06T20:52:03.347Z,102001.00
2022-10-06T20:54:34.772Z,102009.00
2022-10-06T20:57:03.447Z,102004.00
2022-10-06T20:59:30.382Z,101997.00
2022-10-06T21:01:59.816Z,101997.00
2022-10-06T21:04:30.231Z,102001.00
2022-10-06T21:06:57.182Z,102004.00
2022-10-06T21:09:24.514Z,101998.00
2022-10-06T21:11:51.540Z,102002.00
2022-10-06T21:14:18.507Z,102001.00
2022-10-06T21:16:47.524Z,102000.00
2022-10-06T21:19:16.374Z,101994.00
2022-10-06T21:21:45.765Z,101991.00
2022-10-06T21:24:12.301Z,101991.00
2022-10-06T21:26:42.193Z,101987.00
2022-10-06T21:29:14.102Z,101986.00
2022-10-06T21:31:41.410Z,101992.00
2022-10-06T21:34:07.981Z,101994.00
2022-10-06T21:36:34.526Z,101983.00
2022-10-06T21:39:01.549Z,101982.00
2022-10-06T21:41:31.862Z,101979.00
2022-10-06T21:44:02.238Z,101978.00
2022-10-06T21:46:31.842Z,101977.00
2022-10-06T21:48:59.926Z,101975.00
2022-10-06T21:51:30.203Z,101974.00
2022-10-06T21:53:57.529Z,101968.00
2022-10-06T21:56:25.809Z,101971.00
2022-10-06T21:58:54.022Z,101970.00
2022-10-06T22:01:22.371Z,101968.00
2022-10-06T22:03:49.535Z,101978.00
2022-10-06T22:06:19.272Z,101968.00
2022-10-06T22:08:46.788Z,101964.00
2022-10-06T22:11:21.181Z,101966.00
2022-10-06T22:13:49.943Z,101963.00
2022-10-06T22:16:19.115Z,101969.00
2022-10-06T22:18:45.834Z,101954.00
2022-10-06T22:21:16.425Z,101960.00
2022-10-06T22:23:44.767Z,101964.00
2022-10-06T22:26:12.656Z,101962.00
2022-10-06T22:28:40.029Z,101962.00
2022-10-06T22:31:08.921Z,101962.00
2022-10-06T22:33:38.207Z,101959.00
2022-10-06T22:36:06.073Z,101961.00
2022-10-06T22:38:33.943Z,101959.00
2022-10-06T22:41:01.654Z,101952.00
2022-10-06T22:43:28.693Z,101950.00
2022-10-06T22:45:55.602Z,101946.00
2022-10-06T22:48:22.598Z,101946.00
2022-10-06T22:50:49.457Z,101944.00
2022-10-06T22:53:16.817Z,101946.00
2022-10-06T22:55:43.285Z,101949.00
2022-10-06T22:58:11.673Z,101950.00
2022-10-06T23:00:38.525Z,101946.00
2022-10-06T23:03:05.948Z,101946.00
2022-10-06T23:05:32.574Z,101954.00
2022-10-06T23:07:59.560Z,101944.00
2022-10-06T23:10:29.502Z,101932.00
2022-10-06T23:12:57.797Z,101934.00
2022-10-06T23:15:25.292Z,101933.00
2022-10-06T23:17:51.935Z,101934.00
2022-10-06T23:20:19.128Z,101924.00
2022-10-06T23:22:45.762Z,101935.00
2022-10-06T23:25:12.600Z,101923.00
2022-10-06T23:27:39.091Z,101917.00
2022-10-06T23:30:06.237Z,101923.00
2022-10-06T23:32:32.799Z,101932.00
2022-10-06T23:34:59.279Z,101928.00
2022-10-06T23:37:25.772Z,101923.00
2022-10-06T23:39:52.763Z,101923.00
2022-10-06T23:42:19.303Z,101923.00
2022-10-06T23:44:45.796Z,101933.00
2022-10-06T23:47:12.293Z,101923.00
2022-10-06T23:49:38.813Z,101931.00
2022-10-06T23:52:05.393Z,101925.00
2022-10-06T23:54:31.861Z,101932.00
2022-10-06T23:56:58.353Z,101930.00
2022-10-06T23:59:26.092Z,101933.00
